sensor_id;sensor_type;location;lat;lon;timestamp;pressure;altitude;pressure_sealevel;temperature;humidity
8637;BME280;4356;49.068;8.658;2022-11-20T00:00:25;99431.03;;;17.94;42.78
8637;BME280;4356;49.068;8.658;2022-11-20T00:02:51;99432.72;;;17.95;43.09
8637;BME280;4356;49.068;8.658;2022-11-20T00:05:16;99425.38;;;17.95;42.94
8637;BME280;4356;49.068;8.658;2022-11-20T00:07:43;99416.84;;;17.92;43.19
8637;BME280;4356;49.068;8.658;2022-11-20T00:10:09;99424.19;;;17.91;43.16
8637;BME280;4356;49.068;8.658;2022-11-20T00:12:34;99423.56;;;17.89;42.90
8637;BME280;4356;49.068;8.658;2022-11-20T00:15:00;99424.78;;;17.93;43.17
8637;BME280;4356;49.068;8.658;2022-11-20T00:17:26;99425.81;;;17.92;43.14
8637;BME280;4356;49.068;8.658;2022-11-20T00:19:51;99423.34;;;17.91;43.33
8637;BME280;4356;49.068;8.658;2022-11-20T00:22:17;99431.72;;;17.89;42.94
8637;BME280;4356;49.068;8.658;2022-11-20T00:24:43;99431.72;;;17.89;43.30
8637;BME280;4356;49.068;8.658;2022-11-20T00:27:08;99433.63;;;17.89;42.92
8637;BME280;4356;49.068;8.658;2022-11-20T00:29:34;99433.38;;;17.90;43.14
8637;BME280;4356;49.068;8.658;2022-11-20T00:32:00;99430.06;;;17.88;43.03
8637;BME280;4356;49.068;8.658;2022-11-20T00:34:25;99434.22;;;17.91;42.76
8637;BME280;4356;49.068;8.658;2022-11-20T00:36:51;99426.28;;;17.89;43.32
8637;BME280;4356;49.068;8.658;2022-11-20T00:39:17;99424.63;;;17.88;43.01
8637;BME280;4356;49.068;8.658;2022-11-20T00:41:42;99429.84;;;17.90;43.14
8637;BME280;4356;49.068;8.658;2022-11-20T00:44:08;99435.28;;;17.90;43.15
8637;BME280;4356;49.068;8.658;2022-11-20T00:46:33;99429.25;;;17.88;42.91
8637;BME280;4356;49.068;8.658;2022-11-20T00:49:00;99434.44;;;17.89;42.92
8637;BME280;4356;49.068;8.658;2022-11-20T00:51:26;99439.28;;;17.87;43.12
8637;BME280;4356;49.068;8.658;2022-11-20T00:53:58;99440.13;;;17.88;43.31
8637;BME280;4356;49.068;8.658;2022-11-20T00:56:25;99432.41;;;17.85;43.12
8637;BME280;4356;49.068;8.658;2022-11-20T00:58:51;99442.25;;;17.86;42.99
8637;BME280;4356;49.068;8.658;2022-11-20T01:03:46;99440.94;;;17.88;43.23
8637;BME280;4356;49.068;8.658;2022-11-20T01:06:21;99428.66;;;17.86;43.29
8637;BME280;4356;49.068;8.658;2022-11-20T01:08:47;99440.13;;;17.88;43.50
8637;BME280;4356;49.068;8.658;2022-11-20T01:11:25;99433.00;;;17.87;43.14
8637;BME280;4356;49.068;8.658;2022-11-20T01:13:52;99432.78;;;17.88;43.18
8637;BME280;4356;49.068;8.658;2022-11-20T01:16:20;99436.56;;;17.87;43.12
8637;BME280;4356;49.068;8.658;2022-11-20T01:18:49;99430.53;;;17.85;43.38
8637;BME280;4356;49.068;8.658;2022-11-20T01:23:52;99424.25;;;17.85;43.20
8637;BME280;4356;49.068;8.658;2022-11-20T01:26:23;99423.44;;;17.84;43.37
8637;BME280;4356;49.068;8.658;2022-11-20T01:28:50;99416.09;;;17.85;43.57
8637;BME280;4356;49.068;8.658;2022-11-20T01:31:17;99417.78;;;17.86;43.52
8637;BME280;4356;49.068;8.658;2022-11-20T01:33:44;99422.38;;;17.85;43.39
8637;BME280;4356;49.068;8.658;2022-11-20T01:36:11;99424.47;;;17.83;43.71
8637;BME280;4356;49.068;8.658;2022-11-20T01:38:37;99406.84;;;17.74;43.51
8637;BME280;4356;49.068;8.658;2022-11-20T01:41:03;99416.56;;;17.82;43.69
8637;BME280;4356;49.068;8.658;2022-11-20T01:43:29;99421.53;;;17.85;43.78
8637;BME280;4356;49.068;8.658;2022-11-20T01:46:16;99424.25;;;17.85;43.32
8637;BME280;4356;49.068;8.658;2022-11-20T01:49:00;99406.75;;;17.81;43.80
8637;BME280;4356;49.068;8.658;2022-11-20T01:51:39;99414.09;;;17.80;43.72
8637;BME280;4356;49.068;8.658;2022-11-20T01:54:09;99410.75;;;17.78;43.68
8637;BME280;4356;49.068;8.658;2022-11-20T01:56:40;99404.34;;;17.73;43.91
8637;BME280;4356;49.068;8.658;2022-11-20T01:59:10;99417.63;;;17.81;43.66
8637;BME280;4356;49.068;8.658;2022-11-20T02:01:36;99415.34;;;17.78;44.04
8637;BME280;4356;49.068;8.658;2022-11-20T02:04:02;99405.56;;;17.77;43.87
8637;BME280;4356;49.068;8.658;2022-11-20T02:07:05;99408.03;;;17.78;44.08
8637;BME280;4356;49.068;8.658;2022-11-20T02:09:30;99410.16;;;17.76;44.11
8637;BME280;4356;49.068;8.658;2022-11-20T02:11:56;99408.28;;;17.77;43.98
8637;BME280;4356;49.068;8.658;2022-11-20T02:14:23;99406.00;;;17.74;44.31
8637;BME280;4356;49.068;8.658;2022-11-20T02:16:50;99407.91;;;17.73;44.19
8637;BME280;4356;49.068;8.658;2022-11-20T02:19:28;99411.44;;;17.74;44.27
8637;BME280;4356;49.068;8.658;2022-11-20T02:22:19;99409.31;;;17.76;44.44
8637;BME280;4356;49.068;8.658;2022-11-20T02:24:48;99407.91;;;17.73;44.30
8637;BME280;4356;49.068;8.658;2022-11-20T02:27:15;99411.22;;;17.75;44.19
8637;BME280;4356;49.068;8.658;2022-11-20T02:30:18;99398.53;;;17.69;44.20
8637;BME280;4356;49.068;8.658;2022-11-20T02:32:38;99405.19;;;17.73;44.47
8637;BME280;4356;49.068;8.658;2022-11-20T02:37:36;99393.34;;;17.68;44.48
8637;BME280;4356;49.068;8.658;2022-11-20T02:40:02;99395.81;;;17.69;44.26
8637;BME280;4356;49.068;8.658;2022-11-20T02:42:29;99403.75;;;17.71;44.40
8637;BME280;4356;49.068;8.658;2022-11-20T02:44:54;99395.22;;;17.67;44.56
8637;BME280;4356;49.068;8.658;2022-11-20T02:47:20;99391.47;;;17.68;44.46
8637;BME280;4356;49.068;8.658;2022-11-20T02:49:45;99398.31;;;17.71;44.60
8637;BME280;4356;49.068;8.658;2022-11-20T02:52:11;99396.28;;;17.66;44.41
8637;BME280;4356;49.068;8.658;2022-11-20T02:54:37;99385.06;;;17.63;44.51
8637;BME280;4356;49.068;8.658;2022-11-20T02:57:02;99386.22;;;17.67;44.40
8637;BME280;4356;49.068;8.658;2022-11-20T02:59:28;99382.34;;;17.63;44.70
8637;BME280;4356;49.068;8.658;2022-11-20T03:01:53;99389.56;;;17.69;44.53
8637;BME280;4356;49.068;8.658;2022-11-20T03:04:19;99384.34;;;17.67;44.63
8637;BME280;4356;49.068;8.658;2022-11-20T03:06:45;99386.84;;;17.69;44.33
8637;BME280;4356;49.068;8.658;2022-11-20T03:09:11;99373.47;;;17.67;44.32
8637;BME280;4356;49.068;8.658;2022-11-20T03:11:36;99373.94;;;17.64;44.49
8637;BME280;4356;49.068;8.658;2022-11-20T03:14:04;99374.19;;;17.63;44.26
8637;BME280;4356;49.068;8.658;2022-11-20T03:16:30;99386.22;;;17.67;44.38
8637;BME280;4356;49.068;8.658;2022-11-20T03:18:56;99381.50;;;17.62;44.52
8637;BME280;4356;49.068;8.658;2022-11-20T03:21:22;99385.84;;;17.63;44.76
8637;BME280;4356;49.068;8.658;2022-11-20T03:23:48;99392.13;;;17.64;44.62
8637;BME280;4356;49.068;8.658;2022-11-20T03:26:19;99376.91;;;17.63;44.67
8637;BME280;4356;49.068;8.658;2022-11-20T03:28:54;99376.06;;;17.62;44.36
8637;BME280;4356;49.068;8.658;2022-11-20T03:31:25;99366.69;;;17.58;44.39
8637;BME280;4356;49.068;8.658;2022-11-20T03:33:51;99376.28;;;17.61;44.52
8637;BME280;4356;49.068;8.658;2022-11-20T03:36:19;99378.41;;;17.59;44.56
8637;BME280;4356;49.068;8.658;2022-11-20T03:38:45;99378.78;;;17.62;44.84
8637;BME280;4356;49.068;8.658;2022-11-20T03:41:17;99374.38;;;17.61;44.60
8637;BME280;4356;49.068;8.658;2022-11-20T03:43:50;99376.53;;;17.59;44.69
8637;BME280;4356;49.068;8.658;2022-11-20T03:46:16;99366.09;;;17.56;44.68
8637;BME280;4356;49.068;8.658;2022-11-20T03:48:42;99371.91;;;17.60;44.59
8637;BME280;4356;49.068;8.658;2022-11-20T03:51:16;99379.44;;;17.58;44.46
8637;BME280;4356;49.068;8.658;2022-11-20T03:53:44;99375.47;;;17.60;44.70
8637;BME280;4356;49.068;8.658;2022-11-20T03:56:11;99376.53;;;17.59;44.79
8637;BME280;4356;49.068;8.658;2022-11-20T03:58:38;99375.09;;;17.57;44.51
8637;BME280;4356;49.068;8.658;2022-11-20T04:01:13;99376.97;;;17.56;44.88
8637;BME280;4356;49.068;8.658;2022-11-20T04:03:40;99376.97;;;17.56;44.61
8637;BME280;4356;49.068;8.658;2022-11-20T04:06:15;99374.00;;;17.58;44.89
8637;BME280;4356;49.068;8.658;2022-11-20T04:08:41;99381.00;;;17.54;44.91
8637;BME280;4356;49.068;8.658;2022-11-20T04:11:15;99372.59;;;17.55;44.74
8637;BME280;4356;49.068;8.658;2022-11-20T04:13:42;99380.75;;;17.55;44.64
8637;BME280;4356;49.068;8.658;2022-11-20T04:16:10;99381.19;;;17.52;44.62
8637;BME280;4356;49.068;8.658;2022-11-20T04:18:36;99370.31;;;17.52;44.57
8637;BME280;4356;49.068;8.658;2022-11-20T04:21:03;99375.31;;;17.55;44.60
8637;BME280;4356;49.068;8.658;2022-11-20T04:23:29;99379.69;;;17.56;44.72
8637;BME280;4356;49.068;8.658;2022-11-20T04:26:00;99376.59;;;17.53;44.58
8637;BME280;4356;49.068;8.658;2022-11-20T04:28:26;99351.00;;;17.42;44.67
8637;BME280;4356;49.068;8.658;2022-11-20T04:30:51;99368.22;;;17.54;44.72
8637;BME280;4356;49.068;8.658;2022-11-20T04:33:17;99362.19;;;17.52;44.49
8637;BME280;4356;49.068;8.658;2022-11-20T04:35:46;99346.16;;;17.44;44.61
8637;BME280;4356;49.068;8.658;2022-11-20T04:38:12;99360.53;;;17.51;44.98
8637;BME280;4356;49.068;8.658;2022-11-20T04:40:39;99334.69;;;17.42;44.78
8637;BME280;4356;49.068;8.658;2022-11-20T04:43:04;99358.88;;;17.50;44.82
8637;BME280;4356;49.068;8.658;2022-11-20T04:45:30;99356.97;;;17.51;44.55
8637;BME280;4356;49.068;8.658;2022-11-20T04:47:55;99355.97;;;17.45;44.57
8637;BME280;4356;49.068;8.658;2022-11-20T04:50:21;99363.72;;;17.48;44.84
8637;BME280;4356;49.068;8.658;2022-11-20T04:52:47;99359.94;;;17.49;44.71
8637;BME280;4356;49.068;8.658;2022-11-20T04:55:12;99354.94;;;17.46;44.84
8637;BME280;4356;49.068;8.658;2022-11-20T04:57:38;99356.81;;;17.45;44.84
8637;BME280;4356;49.068;8.658;2022-11-20T05:00:04;99356.44;;;17.42;44.44
8637;BME280;4356;49.068;8.658;2022-11-20T05:02:31;99370.19;;;17.47;44.88
8637;BME280;4356;49.068;8.658;2022-11-20T05:04:57;99362.22;;;17.45;44.78
8637;BME280;4356;49.068;8.658;2022-11-20T05:07:22;99363.06;;;17.46;44.88
8637;BME280;4356;49.068;8.658;2022-11-20T05:09:48;99360.34;;;17.46;44.76
8637;BME280;4356;49.068;8.658;2022-11-20T05:12:13;99352.66;;;17.43;44.90
8637;BME280;4356;49.068;8.658;2022-11-20T05:14:39;99357.66;;;17.46;44.57
8637;BME280;4356;49.068;8.658;2022-11-20T05:17:05;99352.66;;;17.43;44.85
8637;BME280;4356;49.068;8.658;2022-11-20T05:19:31;99357.03;;;17.44;44.52
8637;BME280;4356;49.068;8.658;2022-11-20T05:21:56;99346.47;;;17.36;44.54
8637;BME280;4356;49.068;8.658;2022-11-20T05:24:22;99356.19;;;17.43;44.67
8637;BME280;4356;49.068;8.658;2022-11-20T05:26:47;99353.25;;;17.45;44.78
8637;BME280;4356;49.068;8.658;2022-11-20T05:29:13;99349.34;;;17.41;44.41
8637;BME280;4356;49.068;8.658;2022-11-20T05:31:40;99353.47;;;17.43;44.40
8637;BME280;4356;49.068;8.658;2022-11-20T05:34:06;99357.66;;;17.46;44.79
8637;BME280;4356;49.068;8.658;2022-11-20T05:36:33;99352.66;;;17.43;44.26
8637;BME280;4356;49.068;8.658;2022-11-20T05:38:59;99354.56;;;17.42;44.46
8637;BME280;4356;49.068;8.658;2022-11-20T05:41:25;99357.88;;;17.44;44.70
8637;BME280;4356;49.068;8.658;2022-11-20T05:43:51;99355.97;;;17.45;44.38
8637;BME280;4356;49.068;8.658;2022-11-20T05:46:19;99355.38;;;17.43;44.72
8637;BME280;4356;49.068;8.658;2022-11-20T05:48:48;99359.16;;;17.42;44.87
8637;BME280;4356;49.068;8.658;2022-11-20T05:51:16;99357.28;;;17.42;44.68
8637;BME280;4356;49.068;8.658;2022-11-20T05:53:43;99351.22;;;17.40;44.58
8637;BME280;4356;49.068;8.658;2022-11-20T05:56:17;99349.56;;;17.39;44.72
8637;BME280;4356;49.068;8.658;2022-11-20T05:58:43;99352.06;;;17.41;44.73
8637;BME280;4356;49.068;8.658;2022-11-20T06:01:15;99332.75;;;17.31;44.98
8637;BME280;4356;49.068;8.658;2022-11-20T06:03:41;99344.81;;;17.35;44.78
8637;BME280;4356;49.068;8.658;2022-11-20T06:06:09;99353.56;;;17.37;44.82
8637;BME280;4356;49.068;8.658;2022-11-20T06:08:35;99353.56;;;17.37;44.58
8637;BME280;4356;49.068;8.658;2022-11-20T06:11:05;99360.22;;;17.41;44.78
8637;BME280;4356;49.068;8.658;2022-11-20T06:13:31;99354.19;;;17.39;44.58
8637;BME280;4356;49.068;8.658;2022-11-20T06:15:57;99347.69;;;17.40;44.74
8637;BME280;4356;49.068;8.658;2022-11-20T06:18:22;99353.56;;;17.37;44.81
8637;BME280;4356;49.068;8.658;2022-11-20T06:20:48;99357.50;;;17.41;44.81
8637;BME280;4356;49.068;8.658;2022-11-20T06:23:13;99353.34;;;17.38;44.70
8637;BME280;4356;49.068;8.658;2022-11-20T06:25:40;99345.66;;;17.35;44.76
8637;BME280;4356;49.068;8.658;2022-11-20T06:28:07;99349.66;;;17.33;44.83
8637;BME280;4356;49.068;8.658;2022-11-20T06:30:33;99357.50;;;17.41;44.72
8637;BME280;4356;49.068;8.658;2022-11-20T06:32:58;99346.03;;;17.39;44.43
8637;BME280;4356;49.068;8.658;2022-11-20T06:35:24;99367.28;;;17.42;44.80
8637;BME280;4356;49.068;8.658;2022-11-20T06:37:50;99360.88;;;17.36;44.44
8637;BME280;4356;49.068;8.658;2022-11-20T06:40:15;99366.69;;;17.40;44.47
8637;BME280;4356;49.068;8.658;2022-11-20T06:42:41;99365.03;;;17.39;44.46
8637;BME280;4356;49.068;8.658;2022-11-20T06:45:07;99361.25;;;17.40;44.62
8637;BME280;4356;49.068;8.658;2022-11-20T06:47:33;99356.53;;;17.35;44.62
8637;BME280;4356;49.068;8.658;2022-11-20T06:49:59;99368.13;;;17.42;44.48
8637;BME280;4356;49.068;8.658;2022-11-20T06:52:25;99354.63;;;17.36;44.78
8637;BME280;4356;49.068;8.658;2022-11-20T06:54:50;99370.47;;;17.39;44.44
8637;BME280;4356;49.068;8.658;2022-11-20T06:57:16;99357.56;;;17.34;44.48
8637;BME280;4356;49.068;8.658;2022-11-20T06:59:41;99356.53;;;17.35;44.59
8637;BME280;4356;49.068;8.658;2022-11-20T07:02:13;99361.13;;;17.35;44.47
8637;BME280;4356;49.068;8.658;2022-11-20T07:04:39;99379.22;;;17.41;44.47
8637;BME280;4356;49.068;8.658;2022-11-20T07:07:05;99372.22;;;17.33;44.37
8637;BME280;4356;49.068;8.658;2022-11-20T07:09:32;99378.63;;;17.39;44.39
8637;BME280;4356;49.068;8.658;2022-11-20T07:11:57;99382.16;;;17.39;44.34
8637;BME280;4356;49.068;8.658;2022-11-20T07:14:23;99380.97;;;17.35;44.79
8637;BME280;4356;49.068;8.658;2022-11-20T07:16:49;99382.84;;;17.35;44.80
8637;BME280;4356;49.068;8.658;2022-11-20T07:19:15;99386.97;;;17.37;44.57
8637;BME280;4356;49.068;8.658;2022-11-20T07:21:40;99382.84;;;17.35;44.78
8637;BME280;4356;49.068;8.658;2022-11-20T07:24:06;99389.50;;;17.39;44.54
8637;BME280;4356;49.068;8.658;2022-11-20T07:26:32;99386.84;;;17.32;44.42
8637;BME280;4356;49.068;8.658;2022-11-20T07:28:58;99380.56;;;17.32;44.60
8637;BME280;4356;49.068;8.658;2022-11-20T07:31:23;99391.59;;;17.37;44.46
8637;BME280;4356;49.068;8.658;2022-11-20T07:33:49;99383.06;;;17.33;44.63
8637;BME280;4356;49.068;8.658;2022-11-20T07:36:15;99393.47;;;17.36;44.60
8637;BME280;4356;49.068;8.658;2022-11-20T07:38:40;99395.59;;;17.34;44.52
8637;BME280;4356;49.068;8.658;2022-11-20T07:41:06;99384.13;;;17.32;44.45
8637;BME280;4356;49.068;8.658;2022-11-20T07:43:32;99405.19;;;17.37;44.58
8637;BME280;4356;49.068;8.658;2022-11-20T07:45:58;99393.94;;;17.33;44.44
8637;BME280;4356;49.068;8.658;2022-11-20T07:48:24;99394.13;;;17.32;44.71
8637;BME280;4356;49.068;8.658;2022-11-20T07:50:56;99403.13;;;17.32;44.94
8637;BME280;4356;49.068;8.658;2022-11-20T07:53:23;99398.53;;;17.33;44.64
8637;BME280;4356;49.068;8.658;2022-11-20T07:55:49;99399.00;;;17.30;44.50
8637;BME280;4356;49.068;8.658;2022-11-20T07:58:18;99405.63;;;17.34;44.46
8637;BME280;4356;49.068;8.658;2022-11-20T08:00:44;99400.03;;;17.29;44.67
8637;BME280;4356;49.068;8.658;2022-11-20T08:03:10;99408.56;;;17.32;44.65
8637;BME280;4356;49.068;8.658;2022-11-20T08:05:35;99414.84;;;17.33;44.48
8637;BME280;4356;49.068;8.658;2022-11-20T08:08:02;99410.66;;;17.30;44.49
8637;BME280;4356;49.068;8.658;2022-11-20T08:10:28;99422.13;;;17.32;44.94
8637;BME280;4356;49.068;8.658;2022-11-20T08:12:54;99419.41;;;17.32;44.46
8637;BME280;4356;49.068;8.658;2022-11-20T08:15:39;99424.00;;;17.32;44.30
8637;BME280;4356;49.068;8.658;2022-11-20T08:18:10;99426.53;;;17.33;44.32
8637;BME280;4356;49.068;8.658;2022-11-20T08:20:37;99430.28;;;17.32;44.97
8637;BME280;4356;49.068;8.658;2022-11-20T08:23:05;99430.28;;;17.32;44.47
8637;BME280;4356;49.068;8.658;2022-11-20T08:25:32;99422.13;;;17.32;44.65
8637;BME280;4356;49.068;8.658;2022-11-20T08:28:04;99426.72;;;17.32;44.65
8637;BME280;4356;49.068;8.658;2022-11-20T08:30:30;99423.44;;;17.30;44.55
8637;BME280;4356;49.068;8.658;2022-11-20T08:33:04;99431.13;;;17.33;44.44
8637;BME280;4356;49.068;8.658;2022-11-20T08:35:37;99428.03;;;17.29;44.38
8637;BME280;4356;49.068;8.658;2022-11-20T08:38:06;99428.41;;;17.33;44.70
8637;BME280;4356;49.068;8.658;2022-11-20T08:40:33;99429.25;;;17.33;44.70
8637;BME280;4356;49.068;8.658;2022-11-20T08:42:59;99439.28;;;17.33;44.79
8637;BME280;4356;49.068;8.658;2022-11-20T08:45:24;99440.91;;;17.34;44.60
8637;BME280;4356;49.068;8.658;2022-11-20T08:47:51;99438.28;;;17.27;44.72
8637;BME280;4356;49.068;8.658;2022-11-20T08:50:17;99445.53;;;17.33;44.45
8637;BME280;4356;49.068;8.658;2022-11-20T08:52:43;99443.03;;;17.32;44.57
8637;BME280;4356;49.068;8.658;2022-11-20T08:55:09;99443.88;;;17.32;44.43
8637;BME280;4356;49.068;8.658;2022-11-20T08:57:36;99436.19;;;17.29;44.85
8637;BME280;4356;49.068;8.658;2022-11-20T09:00:04;99445.31;;;17.35;44.50
8637;BME280;4356;49.068;8.658;2022-11-20T09:02:30;99442.00;;;17.33;44.43
8637;BME280;4356;49.068;8.658;2022-11-20T09:04:57;99421.38;;;17.25;44.36
8637;BME280;4356;49.068;8.658;2022-11-20T09:07:23;99418.28;;;17.22;44.57
8637;BME280;4356;49.068;8.658;2022-11-20T09:09:49;99436.78;;;17.31;44.59
8637;BME280;4356;49.068;8.658;2022-11-20T09:12:14;99434.88;;;17.32;44.39
8637;BME280;4356;49.068;8.658;2022-11-20T09:14:40;99446.59;;;17.32;44.28
8637;BME280;4356;49.068;8.658;2022-11-20T09:17:06;99446.81;;;17.31;44.64
8637;BME280;4356;49.068;8.658;2022-11-20T09:19:33;99453.09;;;17.31;44.67
8637;BME280;4356;49.068;8.658;2022-11-20T09:21:59;99460.84;;;17.28;44.81
8637;BME280;4356;49.068;8.658;2022-11-20T09:24:26;99460.00;;;17.27;44.49
8637;BME280;4356;49.068;8.658;2022-11-20T09:26:52;99454.13;;;17.30;44.70
8637;BME280;4356;49.068;8.658;2022-11-20T09:29:17;99445.81;;;17.25;44.69
8637;BME280;4356;49.068;8.658;2022-11-20T09:31:43;99444.09;;;17.31;44.69
8637;BME280;4356;49.068;8.658;2022-11-20T09:34:09;99437.22;;;17.28;44.63
8637;BME280;4356;49.068;8.658;2022-11-20T09:36:35;99442.88;;;17.27;44.72
8637;BME280;4356;49.068;8.658;2022-11-20T09:39:01;99458.75;;;17.30;44.61
8637;BME280;4356;49.068;8.658;2022-11-20T09:44:37;99457.06;;;17.29;44.47
8637;BME280;4356;49.068;8.658;2022-11-20T09:47:13;99460.00;;;17.27;44.66
8637;BME280;4356;49.068;8.658;2022-11-20T09:55:18;99456.47;;;17.27;44.77
8637;BME280;4356;49.068;8.658;2022-11-20T09:57:46;99461.66;;;17.28;44.75
8637;BME280;4356;49.068;8.658;2022-11-20T10:00:14;99457.53;;;17.26;44.47
8637;BME280;4356;49.068;8.658;2022-11-20T10:02:53;99462.50;;;17.29;44.60
8637;BME280;4356;49.068;8.658;2022-11-20T10:05:25;99466.28;;;17.28;44.60
8637;BME280;4356;49.068;8.658;2022-11-20T10:07:59;99460.25;;;17.26;44.91
8637;BME280;4356;49.068;8.658;2022-11-20T10:10:34;99467.09;;;17.28;44.67
8637;BME280;4356;49.068;8.658;2022-11-20T10:13:15;99458.75;;;17.30;44.57
8637;BME280;4356;49.068;8.658;2022-11-20T10:21:35;99467.69;;;17.30;44.45
8637;BME280;4356;49.068;8.658;2022-11-20T10:27:24;99475.63;;;17.32;44.29
8637;BME280;4356;49.068;8.658;2022-11-20T10:30:16;99478.34;;;17.32;44.37
8637;BME280;4356;49.068;8.658;2022-11-20T10:32:46;99468.53;;;17.31;44.59
8637;BME280;4356;49.068;8.658;2022-11-20T10:38:02;99470.19;;;17.32;44.39
8637;BME280;4356;49.068;8.658;2022-11-20T10:40:35;99471.03;;;17.32;44.54
8637;BME280;4356;49.068;8.658;2022-11-20T10:45:56;99464.31;;;17.35;44.46
8637;BME280;4356;49.068;8.658;2022-11-20T10:48:26;99461.00;;;17.33;44.60
8637;BME280;4356;49.068;8.658;2022-11-20T10:54:03;99455.50;;;17.39;44.68
8637;BME280;4356;49.068;8.658;2022-11-20T10:56:42;99460.25;;;17.44;44.71
8637;BME280;4356;49.068;8.658;2022-11-20T11:04:53;99438.19;;;17.59;44.31
8637;BME280;4356;49.068;8.658;2022-11-20T11:07:30;99442.91;;;17.63;44.36
8637;BME280;4356;49.068;8.658;2022-11-20T11:09:56;99443.28;;;17.67;44.34
8637;BME280;4356;49.068;8.658;2022-11-20T11:12:28;99431.25;;;17.63;43.97
8637;BME280;4356;49.068;8.658;2022-11-20T11:14:55;99434.94;;;17.68;44.26
8637;BME280;4356;49.068;8.658;2022-11-20T11:17:27;99427.38;;;17.70;44.26
8637;BME280;4356;49.068;8.658;2022-11-20T11:22:56;99425.47;;;17.71;44.10
8637;BME280;4356;49.068;8.658;2022-11-20T11:27:58;99420.28;;;17.69;44.08
8637;BME280;4356;49.068;8.658;2022-11-20T11:30:25;99402.09;;;17.70;44.09
8637;BME280;4356;49.068;8.658;2022-11-20T11:33:03;99396.06;;;17.68;44.06
8637;BME280;4356;49.068;8.658;2022-11-20T11:35:29;99409.56;;;17.74;44.11
8637;BME280;4356;49.068;8.658;2022-11-20T11:38:06;99386.59;;;17.70;43.79
8637;BME280;4356;49.068;8.658;2022-11-20T11:40:36;99395.72;;;17.76;43.76
8637;BME280;4356;49.068;8.658;2022-11-20T11:43:17;99390.09;;;17.77;43.83
8637;BME280;4356;49.068;8.658;2022-11-20T11:51:24;99386.19;;;17.85;44.00
8637;BME280;4356;49.068;8.658;2022-11-20T11:53:52;99376.16;;;17.85;43.99
8637;BME280;4356;49.068;8.658;2022-11-20T11:56:18;99371.47;;;17.92;43.86
8637;BME280;4356;49.068;8.658;2022-11-20T11:58:47;99363.91;;;17.94;43.84
8637;BME280;4356;49.068;8.658;2022-11-20T12:03:59;99365.84;;;18.05;43.57
8637;BME280;4356;49.068;8.658;2022-11-20T12:06:28;99370.13;;;18.13;43.64
8637;BME280;4356;49.068;8.658;2022-11-20T12:09:04;99348.25;;;18.08;43.63
8637;BME280;4356;49.068;8.658;2022-11-20T12:14:18;99355.50;;;18.25;43.22
8637;BME280;4356;49.068;8.658;2022-11-20T12:16:50;99367.31;;;18.31;43.16
8637;BME280;4356;49.068;8.658;2022-11-20T12:19:18;99352.66;;;18.20;43.42
8637;BME280;4356;49.068;8.658;2022-11-20T12:30:20;99363.28;;;18.33;43.20
8637;BME280;4356;49.068;8.658;2022-11-20T12:33:04;99363.91;;;18.35;42.78
8637;BME280;4356;49.068;8.658;2022-11-20T12:35:49;99361.66;;;18.32;42.79
8637;BME280;4356;49.068;8.658;2022-11-20T12:44:52;99361.78;;;18.37;42.68
8637;BME280;4356;49.068;8.658;2022-11-20T12:47:55;99369.94;;;18.37;42.71
8637;BME280;4356;49.068;8.658;2022-11-20T12:53:33;99359.06;;;18.37;42.88
8637;BME280;4356;49.068;8.658;2022-11-20T13:01:54;99362.47;;;18.33;42.58
8637;BME280;4356;49.068;8.658;2022-11-20T13:07:04;99358.69;;;18.34;42.80
8637;BME280;4356;49.068;8.658;2022-11-20T13:09:32;99344.13;;;18.28;42.93
8637;BME280;4356;49.068;8.658;2022-11-20T13:12:09;99350.53;;;18.34;42.08
8637;BME280;4356;49.068;8.658;2022-11-20T13:15:22;99352.81;;;18.37;41.90
8637;BME280;4356;49.068;8.658;2022-11-20T13:17:55;99336.09;;;18.33;41.97
8637;BME280;4356;49.068;8.658;2022-11-20T13:20:23;99325.34;;;18.38;42.36
8637;BME280;4356;49.068;8.658;2022-11-20T13:22:53;99328.69;;;18.40;42.44
8637;BME280;4356;49.068;8.658;2022-11-20T13:25:30;99324.22;;;18.46;42.37
8637;BME280;4356;49.068;8.658;2022-11-20T13:27:58;99325.63;;;18.48;41.70
8637;BME280;4356;49.068;8.658;2022-11-20T13:30:27;99322.66;;;18.50;41.52
8637;BME280;4356;49.068;8.658;2022-11-20T13:32:58;99325.97;;;18.52;41.79
8637;BME280;4356;49.068;8.658;2022-11-20T13:35:33;99317.38;;;18.55;41.70
8637;BME280;4356;49.068;8.658;2022-11-20T13:38:02;99313.47;;;18.51;41.64
8637;BME280;4356;49.068;8.658;2022-11-20T13:40:30;99319.84;;;18.57;41.92
8637;BME280;4356;49.068;8.658;2022-11-20T13:43:41;99313.31;;;18.58;41.46
8637;BME280;4356;49.068;8.658;2022-11-20T13:45:42;99307.88;;;18.58;41.43
8637;BME280;4356;49.068;8.658;2022-11-20T13:48:22;99304.31;;;18.57;41.31
8637;BME280;4356;49.068;8.658;2022-11-20T13:51:10;99314.50;;;18.62;41.45
8637;BME280;4356;49.068;8.658;2022-11-20T13:54:03;99309.66;;;18.64;41.31
8637;BME280;4356;49.068;8.658;2022-11-20T13:56:48;99308.59;;;18.65;41.15
8637;BME280;4356;49.068;8.658;2022-11-20T13:59:34;99304.22;;;18.64;41.06
8637;BME280;4356;49.068;8.658;2022-11-20T14:02:11;99302.56;;;18.63;40.92
8637;BME280;4356;49.068;8.658;2022-11-20T14:04:42;99301.59;;;18.69;40.76
8637;BME280;4356;49.068;8.658;2022-11-20T14:07:09;99288.34;;;18.61;40.83
8637;BME280;4356;49.068;8.658;2022-11-20T14:09:35;99306.00;;;18.70;41.47
8637;BME280;4356;49.068;8.658;2022-11-20T14:12:02;99306.34;;;18.73;41.78
8637;BME280;4356;49.068;8.658;2022-11-20T14:14:30;99293.78;;;18.72;40.97
8637;BME280;4356;49.068;8.658;2022-11-20T14:17:17;99293.31;;;18.75;41.65
8637;BME280;4356;49.068;8.658;2022-11-20T14:19:45;99299.34;;;18.77;40.55
8637;BME280;4356;49.068;8.658;2022-11-20T14:22:26;99302.66;;;18.79;41.11
8637;BME280;4356;49.068;8.658;2022-11-20T14:25:06;99301.84;;;18.79;41.23
8637;BME280;4356;49.068;8.658;2022-11-20T14:27:37;99297.94;;;18.75;40.76
8637;BME280;4356;49.068;8.658;2022-11-20T14:30:05;99291.06;;;18.72;40.83
8637;BME280;4356;49.068;8.658;2022-11-20T14:32:31;99294.75;;;18.78;40.62
8637;BME280;4356;49.068;8.658;2022-11-20T14:35:07;99286.81;;;18.76;40.07
8637;BME280;4356;49.068;8.658;2022-11-20T14:37:37;99288.25;;;18.79;40.04
8637;BME280;4356;49.068;8.658;2022-11-20T14:40:21;99285.38;;;18.74;40.23
8637;BME280;4356;49.068;8.658;2022-11-20T14:42:47;99279.50;;;18.77;40.53
8637;BME280;4356;49.068;8.658;2022-11-20T14:45:13;99277.56;;;18.77;40.43
8637;BME280;4356;49.068;8.658;2022-11-20T14:47:39;99275.94;;;18.76;40.74
8637;BME280;4356;49.068;8.658;2022-11-20T14:50:14;99275.69;;;18.78;40.78
8637;BME280;4356;49.068;8.658;2022-11-20T14:52:50;99278.31;;;18.73;40.62
8637;BME280;4356;49.068;8.658;2022-11-20T14:55:30;99284.94;;;18.77;40.53